Time;durP1;ratioP1;P1;durP2;ratioP2;P2;SDS_P1;SDS_P2;PMS_P1;PMS_P2;Temp;Humidity;BMP_temperature;BMP_pressure;BME280_temperature;BME280_humidity;BME280_pressure;Samples;Min_cycle;Max_cycle;Signal;HPM_P1;HPM_P2
2021/12/15 00:00:41;;;;;;;63.88;22.70;;;;;;;-1.09;72.42;100626.47;5007819;28;20058;-86
2021/12/15 00:03:09;;;;;;;62.50;24.75;;;;;;;-1.20;72.53;100621.50;4993011;28;20046;-87
2021/12/15 00:05:36;;;;;;;59.53;23.13;;;;;;;-1.17;72.92;100625.09;5008095;28;20055;-87
2021/12/15 00:08:11;;;;;;;58.22;23.02;;;;;;;-1.05;72.70;100625.00;5013741;28;20054;-86
2021/12/15 00:10:40;;;;;;;63.15;23.35;;;;;;;-0.96;72.18;100617.88;5003231;28;20050;-85
2021/12/15 00:13:07;;;;;;;64.72;25.38;;;;;;;-0.97;72.34;100625.47;5001614;28;20414;-85
2021/12/15 00:15:35;;;;;;;65.97;24.20;;;;;;;-0.92;72.40;100624.09;5019070;28;20038;-87
2021/12/15 00:18:03;;;;;;;69.70;24.60;;;;;;;-0.92;72.16;100612.13;5003224;28;20054;-88
2021/12/15 00:20:31;;;;;;;63.92;24.20;;;;;;;-0.83;72.22;100619.50;5035638;28;20074;-89
2021/12/15 00:22:59;;;;;;;64.88;23.63;;;;;;;-0.83;71.94;100610.13;5019646;28;20102;-88
2021/12/15 00:25:30;;;;;;;70.25;24.27;;;;;;;-0.91;72.44;100613.00;5002917;28;20046;-87
2021/12/15 00:27:59;;;;;;;62.45;25.13;;;;;;;-0.88;72.44;100610.66;5019242;28;20053;-89
2021/12/15 00:30:29;;;;;;;60.35;24.30;;;;;;;-0.90;72.43;100599.41;5000053;28;20110;-88
2021/12/15 00:33:00;;;;;;;58.70;22.33;;;;;;;-0.84;72.04;100595.53;4983129;28;20046;-91
2021/12/15 00:35:35;;;;;;;64.57;24.02;;;;;;;-0.72;71.97;100600.50;4986470;28;20050;-83
2021/12/15 00:38:04;;;;;;;59.40;24.10;;;;;;;-0.64;71.80;100614.69;4998378;28;20499;-85
2021/12/15 00:40:32;;;;;;;60.75;23.27;;;;;;;-0.62;71.77;100595.13;4979871;28;20058;-87
2021/12/15 00:43:01;;;;;;;61.65;21.75;;;;;;;-0.68;71.67;100589.63;4997637;28;20050;-87
2021/12/15 00:45:28;;;;;;;59.58;22.92;;;;;;;-0.66;71.69;100598.31;4997472;28;20503;-85
2021/12/15 00:47:56;;;;;;;63.58;23.65;;;;;;;-0.64;71.28;100599.28;4998407;28;20069;-86
2021/12/15 00:50:27;;;;;;;62.90;22.20;;;;;;;-0.67;71.35;100580.25;4985841;28;20046;-80
2021/12/15 00:52:57;;;;;;;67.35;23.85;;;;;;;-0.67;70.81;100595.66;4998069;28;20150;-81
2021/12/15 00:55:27;;;;;;;67.00;24.52;;;;;;;-0.79;71.61;100594.94;4998811;28;20053;-81
2021/12/15 00:57:55;;;;;;;70.75;24.95;;;;;;;-0.81;72.43;100596.53;5015847;28;20168;-82
2021/12/15 01:00:41;;;;;;;64.05;22.77;;;;;;;-0.76;71.42;100595.09;5015896;28;20074;-84
2021/12/15 01:03:10;;;;;;;66.68;24.05;;;;;;;-0.95;71.54;100549.50;5000750;28;20110;-87
2021/12/15 01:05:44;;;;;;;67.82;24.33;;;;;;;-0.68;71.73;100586.19;4986926;28;20066;-86
2021/12/15 01:08:18;;;;;;;60.33;23.48;;;;;;;-0.60;71.24;100594.31;5007473;28;20056;-85
2021/12/15 01:11:03;;;;;;;57.22;22.15;;;;;;;-0.73;71.04;100588.50;5014243;28;20502;-86
2021/12/15 01:21:57;;;;;;;59.35;22.40;;;;;;;-0.83;71.58;100546.00;5019021;28;20059;-86
2021/12/15 01:24:26;;;;;;;57.22;21.15;;;;;;;-0.84;71.48;100527.94;5018984;28;20053;-89
2021/12/15 01:26:55;;;;;;;;;;;;;;;-0.80;71.84;100558.09;5018566;28;20038;-84
2021/12/15 01:29:22;;;;;;;64.13;22.85;;;;;;;-0.68;71.81;100558.84;5016698;28;19925;-85
2021/12/15 01:31:49;;;;;;;63.95;23.55;;;;;;;-0.63;71.76;100552.28;5020513;28;20044;-88
2021/12/15 01:34:17;;;;;;;62.10;23.67;;;;;;;-0.74;71.31;100534.50;5010122;28;20046;-88
2021/12/15 01:36:44;;;;;;;66.30;23.35;;;;;;;-0.80;71.58;100522.19;5032934;28;20057;-89
2021/12/15 01:39:12;;;;;;;59.67;23.63;;;;;;;-0.52;71.49;100549.47;5000831;28;20053;-89
2021/12/15 01:41:39;;;;;;;59.20;22.25;;;;;;;-0.67;71.36;100542.66;4998088;28;20045;-87
2021/12/15 01:46:56;;;;;;;66.55;24.08;;;;;;;-0.80;71.52;100546.97;5017138;28;20050;-88
2021/12/15 01:49:41;;;;;;;58.97;22.95;;;;;;;-0.79;71.83;100559.00;4982380;28;20054;-87
2021/12/15 01:52:23;;;;;;;62.28;24.15;;;;;;;-0.70;71.51;100552.72;4998240;28;20057;-85
2021/12/15 01:55:03;;;;;;;55.22;23.17;;;;;;;-0.82;71.56;100541.72;4997742;28;20541;-88
2021/12/15 01:57:33;;;;;;;;;;;;;;;-0.97;72.22;100540.81;5016810;28;20076;-86
2021/12/15 02:00:07;;;;;;;57.05;21.40;;;;;;;-0.91;71.53;100536.06;5002250;28;19937;-87
2021/12/15 02:02:42;;;;;;;56.47;21.17;;;;;;;-0.93;71.67;100541.09;5014165;28;20069;-87
2021/12/15 02:05:11;;;;;;;54.75;20.80;;;;;;;-0.92;71.29;100555.69;5029697;28;20562;-88
2021/12/15 02:07:41;;;;;;;58.00;22.48;;;;;;;-1.06;71.89;100536.91;5015597;28;20050;-86
2021/12/15 02:10:08;;;;;;;55.15;20.48;;;;;;;-1.20;72.51;100524.94;5030765;28;20081;-87
2021/12/15 02:12:55;;;;;;;55.58;21.35;;;;;;;-1.07;72.38;100541.97;5015291;28;20093;-88
2021/12/15 02:15:32;;;;;;;49.63;20.05;;;;;;;-0.98;72.13;100550.19;4997666;28;20050;-87
2021/12/15 02:18:00;;;;;;;50.53;19.95;;;;;;;-1.11;71.65;100540.88;4997874;28;20142;-87
2021/12/15 02:20:35;;;;;;;52.33;19.92;;;;;;;-1.06;71.82;100547.16;5014860;28;20060;-85
2021/12/15 02:23:05;;;;;;;50.20;20.98;;;;;;;-1.14;72.24;100544.91;4997893;28;20058;-87
2021/12/15 02:25:32;;;;;;;56.65;21.98;;;;;;;-1.19;72.46;100541.22;4999160;28;20077;-87
2021/12/15 02:28:02;;;;;;;50.95;19.55;;;;;;;-1.14;72.32;100534.66;5016100;28;20498;-85
2021/12/15 02:38:34;;;;;;;49.60;20.08;;;;;;;-1.03;71.81;100541.34;5018342;28;20054;-86
2021/12/15 02:41:12;;;;;;;51.45;20.05;;;;;;;-1.22;71.73;100554.72;5001155;28;20054;-84
2021/12/15 02:43:40;;;;;;;60.25;21.92;;;;;;;-1.30;72.31;100561.94;4985398;28;20405;-84
2021/12/15 02:46:08;;;;;;;61.33;21.60;;;;;;;-1.39;72.94;100552.81;5019141;28;20050;-84
2021/12/15 02:48:35;;;;;;;58.78;21.58;;;;;;;-1.22;72.37;100557.28;5018380;28;20453;-85
2021/12/15 02:51:02;;;;;;;59.97;22.40;;;;;;;-1.29;72.37;100550.00;5018846;28;20100;-87
2021/12/15 02:53:30;;;;;;;60.30;21.00;;;;;;;-1.28;72.60;100567.16;5019690;28;20077;-88
2021/12/15 02:55:58;;;;;;;60.55;20.92;;;;;;;-1.48;72.84;100553.13;5018631;28;20049;-85
2021/12/15 02:58:32;;;;;;;61.13;22.63;;;;;;;-1.36;73.27;100552.97;5001631;28;20524;-84
2021/12/15 03:01:11;;;;;;;59.03;21.75;;;;;;;-1.37;72.63;100548.66;5019339;28;20068;-85
2021/12/15 03:06:16;;;;;;;63.05;22.35;;;;;;;-1.33;73.45;100538.69;5018494;28;20085;-85
2021/12/15 03:16:55;;;;;;;62.95;23.88;;;;;;;-1.63;73.71;100532.53;5018732;28;20054;-86
2021/12/15 03:19:25;;;;;;;63.78;23.48;;;;;;;-1.66;73.53;100519.53;5018648;28;20216;-88
2021/12/15 03:21:52;;;;;;;64.75;22.63;;;;;;;-1.64;72.89;100523.06;5000868;28;20053;-88
2021/12/15 03:24:23;;;;;;;56.92;22.50;;;;;;;-1.75;73.97;100516.41;5018473;28;20164;-90
2021/12/15 03:27:10;;;;;;;68.15;23.05;;;;;;;-1.80;74.34;100510.09;5018027;28;20081;-89
2021/12/15 03:37:48;;;;;;;63.47;24.10;;;;;;;-1.60;73.73;100495.97;5020342;28;20081;-90
2021/12/15 03:40:27;;;;;;;68.57;24.13;;;;;;;-1.61;74.11;100515.59;5005671;28;20053;-91
2021/12/15 03:43:02;;;;;;;63.13;24.33;;;;;;;-1.74;74.43;100505.34;5053001;28;20036;-88
2021/12/15 03:45:38;;;;;;;57.63;21.83;;;;;;;-1.67;74.11;100497.28;5023960;28;20045;-87
2021/12/15 03:48:11;;;;;;;71.90;24.77;;;;;;;-1.70;74.52;100512.44;5040496;28;20073;-87
2021/12/15 03:50:38;;;;;;;69.57;24.17;;;;;;;-1.78;74.31;100499.16;5039962;28;20338;-86
2021/12/15 03:53:06;;;;;;;68.30;23.42;;;;;;;-1.78;74.61;100501.72;5040362;28;20097;-88
2021/12/15 03:55:35;;;;;;;61.00;23.00;;;;;;;-1.62;74.17;100507.81;5005707;28;20085;-85
2021/12/15 03:58:10;;;;;;;65.80;27.17;;;;;;;-1.61;74.08;100486.50;5003136;28;20058;-91
2021/12/15 04:00:52;;;;;;;68.47;24.58;;;;;;;-1.47;73.97;100506.19;5007674;28;20301;-85
2021/12/15 04:03:28;;;;;;;63.40;24.60;;;;;;;-1.56;73.66;100467.19;5008739;28;20046;-86
2021/12/15 04:05:59;;;;;;;63.10;23.13;;;;;;;-1.41;73.60;100509.13;5009833;28;20082;-88
2021/12/15 04:08:28;;;;;;;59.72;22.48;;;;;;;-1.57;74.04;100507.31;5002763;28;20118;-88
2021/12/15 04:10:59;;;;;;;67.40;24.50;;;;;;;-1.63;74.42;100493.22;5009823;28;20081;-87
2021/12/15 04:13:26;;;;;;;;;;;;;;;-1.70;74.21;100512.44;5019117;28;20088;-85
2021/12/15 04:15:57;;;;;;;63.50;23.02;;;;;;;-1.54;74.83;100512.63;5018768;28;19980;-87
2021/12/15 04:18:30;;;;;;;66.70;23.40;;;;;;;-1.58;74.28;100494.41;5023708;28;20065;-86
2021/12/15 04:20:58;;;;;;;63.85;22.63;;;;;;;-1.59;73.99;100497.72;5019717;28;20433;-90
2021/12/15 04:23:25;;;;;;;62.25;24.05;;;;;;;-1.35;74.17;100522.31;5033309;28;20420;-90
2021/12/15 04:25:55;;;;;;;61.40;22.73;;;;;;;-1.29;73.99;100508.97;5019305;28;20148;-90
2021/12/15 04:28:26;;;;;;;62.73;23.07;;;;;;;-1.22;74.07;100502.56;5019133;28;20088;-94
2021/12/15 04:30:57;;;;;;;64.25;25.27;;;;;;;-1.16;73.65;100482.41;5029662;28;20069;-90
2021/12/15 04:33:34;;;;;;;60.22;22.35;;;;;;;-0.98;73.38;100496.34;5053877;28;20029;-87
2021/12/15 04:36:04;;;;;;;55.33;22.63;;;;;;;-0.94;73.37;100494.84;4988379;28;20050;-87
2021/12/15 04:38:33;;;;;;;60.33;23.02;;;;;;;-0.98;72.94;100490.34;5004673;28;20066;-88
2021/12/15 04:41:05;;;;;;;57.88;22.80;;;;;;;-1.03;73.14;100492.63;5002563;28;20050;-84
2021/12/15 04:43:35;;;;;;;62.10;22.95;;;;;;;-1.05;73.42;100482.28;5037545;28;20060;-89
2021/12/15 04:46:04;;;;;;;67.97;26.23;;;;;;;-0.99;72.73;100475.72;5025222;28;20068;-89
2021/12/15 04:48:34;;;;;;;56.67;21.92;;;;;;;-1.25;72.76;100434.94;5004507;28;20074;-91
2021/12/15 04:51:03;;;;;;;64.38;24.33;;;;;;;-1.04;73.07;100475.47;5021655;28;20054;-87
2021/12/15 04:53:31;;;;;;;58.78;21.55;;;;;;;-1.12;73.29;100477.59;5017977;28;20073;-89
2021/12/15 04:56:01;;;;;;;58.50;23.40;;;;;;;-1.25;73.64;100480.19;5017151;28;20080;-86
2021/12/15 04:58:29;;;;;;;58.28;22.00;;;;;;;-1.36;73.61;100466.72;5031184;28;20042;-85
2021/12/15 05:01:14;;;;;;;63.38;23.08;;;;;;;-1.34;73.29;100470.25;5035253;28;20061;-89
2021/12/15 05:03:56;;;;;;;62.35;22.90;;;;;;;-1.56;73.65;100450.13;5022791;28;20060;-91
2021/12/15 05:06:25;;;;;;;57.33;22.08;;;;;;;-1.33;73.49;100499.38;5023052;28;20104;-93
2021/12/15 05:08:55;;;;;;;;;;;;;;;-1.54;73.98;100476.75;5006965;28;20053;-92
2021/12/15 05:11:26;;;;;;;65.63;21.90;;;;;;;-1.58;73.65;100499.53;5025164;28;19930;-92
2021/12/15 05:14:05;;;;;;;58.05;22.15;;;;;;;-1.60;74.05;100480.59;5020665;28;20046;-94
2021/12/15 05:17:00;;;;;;;54.47;20.55;;;;;;;-1.60;73.96;100490.84;4999247;28;20223;-91
2021/12/15 05:19:38;;;;;;;57.45;22.33;;;;;;;-1.78;74.22;100459.88;5003624;28;20054;-94
2021/12/15 05:22:17;;;;;;;55.38;21.38;;;;;;;-1.77;74.06;100452.25;5003575;28;20104;-91
2021/12/15 05:24:50;;;;;;;58.72;22.17;;;;;;;-1.65;74.32;100494.00;5019956;28;20050;-92
2021/12/15 05:27:19;;;;;;;68.10;25.55;;;;;;;-1.69;74.62;100463.00;5002546;28;20053;-90
2021/12/15 05:29:50;;;;;;;60.40;22.50;;;;;;;-1.74;74.50;100449.91;4991316;28;20054;-93
2021/12/15 05:32:26;;;;;;;56.67;22.15;;;;;;;-1.73;74.14;100455.91;4995591;28;20494;-90
2021/12/15 05:35:07;;;;;;;61.22;23.98;;;;;;;-1.70;74.40;100458.63;5020194;28;20127;-89
2021/12/15 05:37:37;;;;;;;63.30;22.83;;;;;;;-1.70;73.75;100449.31;5022267;28;20057;-89
2021/12/15 05:40:07;;;;;;;64.18;23.38;;;;;;;-1.67;73.79;100469.97;5019782;28;20068;-93
2021/12/15 05:42:35;;;;;;;61.72;22.63;;;;;;;-1.74;73.71;100447.34;5018994;28;20144;-90
2021/12/15 05:45:03;;;;;;;60.58;22.02;;;;;;;-1.42;74.05;100509.91;5001346;28;20383;-91
2021/12/15 05:47:31;;;;;;;68.30;24.00;;;;;;;-1.52;73.65;100482.84;5003470;28;20120;-92
2021/12/15 05:49:59;;;;;;;55.70;24.10;;;;;;;-1.69;73.75;100428.00;5016366;28;20057;-89
2021/12/15 05:52:30;;;;;;;65.80;24.48;;;;;;;-1.67;74.07;100431.53;5018521;28;20085;-91
2021/12/15 05:54:58;;;;;;;63.03;22.52;;;;;;;-1.52;74.11;100448.66;5003694;28;20050;-91
2021/12/15 05:57:28;;;;;;;56.17;23.52;;;;;;;-1.39;73.65;100428.09;5021302;28;20084;-90
2021/12/15 05:59:55;;;;;;;60.70;22.50;;;;;;;-1.10;73.30;100503.28;5019988;28;20441;-87
2021/12/15 06:02:23;;;;;;;60.40;23.08;;;;;;;-1.03;73.43;100495.19;5036596;28;20054;-88
2021/12/15 06:04:51;;;;;;;55.75;22.58;;;;;;;-1.12;73.25;100484.38;5019340;28;20054;-89
2021/12/15 06:07:18;;;;;;;58.15;23.13;;;;;;;-1.24;73.08;100469.16;5023639;28;20117;-91
2021/12/15 06:09:46;;;;;;;57.53;23.40;;;;;;;-1.22;74.02;100489.75;5023520;28;20054;-88
2021/12/15 06:12:14;;;;;;;60.55;23.60;;;;;;;-1.47;74.23;100463.50;5005741;28;20436;-87
2021/12/15 06:14:42;;;;;;;61.75;23.85;;;;;;;-1.10;74.51;100486.25;4989079;28;20050;-88
2021/12/15 06:17:12;;;;;;;57.75;21.13;;;;;;;-1.22;73.14;100454.75;5021393;28;20081;-88
2021/12/15 06:19:40;;;;;;;61.90;22.05;;;;;;;-1.06;73.31;100477.91;4991013;28;20050;-91
2021/12/15 06:22:11;;;;;;;59.33;23.40;;;;;;;-1.43;73.76;100441.50;5023458;28;20064;-90
2021/12/15 06:24:38;;;;;;;55.30;21.88;;;;;;;-0.96;73.74;100483.63;5012787;28;20058;-88
2021/12/15 06:27:15;;;;;;;55.75;23.48;;;;;;;-1.08;73.11;100442.72;5009406;28;20484;-89
2021/12/15 06:29:44;;;;;;;60.85;22.02;;;;;;;-0.81;73.17;100479.38;5052459;28;20106;-89
2021/12/15 06:32:19;;;;;;;52.85;22.40;;;;;;;-0.91;72.85;100452.28;5023276;28;20050;-91
2021/12/15 06:34:58;;;;;;;58.80;22.10;;;;;;;-0.67;72.56;100493.00;5009441;28;20160;-92
2021/12/15 06:37:33;;;;;;;57.05;22.60;;;;;;;-0.93;72.95;100458.13;5006216;28;20444;-90
2021/12/15 06:40:21;;;;;;;55.53;21.05;;;;;;;-0.97;72.93;100477.56;4989082;28;20440;-92
2021/12/15 06:42:53;;;;;;;65.03;23.25;;;;;;;-0.82;73.13;100485.28;4996439;28;20050;-93
2021/12/15 06:45:34;;;;;;;54.90;21.15;;;;;;;-1.20;72.63;100427.53;5026819;28;20042;-92
2021/12/15 06:59:06;;;;;;;51.13;19.92;;;;;;;-0.95;72.74;100460.59;4989501;28;20056;-89
2021/12/15 07:01:33;;;;;;;48.88;19.17;;;;;;;-0.73;73.49;100496.13;5007117;28;20056;-90
2021/12/15 07:04:01;;;;;;;52.75;19.63;;;;;;;-0.52;73.01;100481.06;4989096;28;20553;-91
2021/12/15 07:06:28;;;;;;;49.25;20.55;;;;;;;-0.33;71.78;100485.56;5005007;28;20053;-91
2021/12/15 07:08:56;;;;;;;51.15;21.17;;;;;;;-0.45;72.25;100479.75;5023156;28;20188;-90
2021/12/15 07:11:24;;;;;;;49.55;19.48;;;;;;;-0.49;71.98;100488.06;5024362;28;20108;-90
2021/12/15 07:13:58;;;;;;;51.58;19.58;;;;;;;-0.76;72.46;100459.13;5024222;28;20145;-89
2021/12/15 07:16:32;;;;;;;48.83;19.67;;;;;;;-0.72;73.20;100464.53;5037930;28;20506;-93
2021/12/15 07:24:54;;;;;;;47.83;18.98;;;;;;;-0.42;72.37;100472.22;5014835;28;20058;-89
2021/12/15 07:27:25;;;;;;;53.28;19.20;;;;;;;-0.24;72.41;100480.97;4996985;28;20078;-90
2021/12/15 07:29:52;;;;;;;56.65;20.67;;;;;;;-0.17;72.02;100483.84;4965324;28;20065;-88
2021/12/15 07:32:20;;;;;;;46.55;19.27;;;;;;;-0.07;71.57;100476.75;4965807;28;20121;-88
2021/12/15 07:34:50;;;;;;;49.47;20.02;;;;;;;-0.14;71.84;100463.50;4981432;28;20526;-87
2021/12/15 07:37:18;;;;;;;46.67;18.92;;;;;;;-0.02;71.43;100470.22;4980952;28;20062;-86
2021/12/15 07:39:54;;;;;;;49.78;20.05;;;;;;;0.18;70.74;100470.41;4964904;28;20050;-86
2021/12/15 07:42:31;;;;;;;46.65;18.67;;;;;;;0.06;71.27;100468.03;4977712;28;20105;-86
2021/12/15 07:44:59;;;;;;;52.35;19.90;;;;;;;0.07;72.18;100477.53;4978333;28;20565;-86
2021/12/15 07:47:27;;;;;;;50.40;19.00;;;;;;;0.11;71.36;100461.50;4961230;28;20050;-87
2021/12/15 07:49:57;;;;;;;51.05;19.70;;;;;;;0.17;71.87;100468.63;4990034;28;20122;-87
2021/12/15 07:52:26;;;;;;;47.42;19.02;;;;;;;0.17;71.71;100455.78;4966326;28;20065;-87
2021/12/15 07:54:53;;;;;;;54.92;20.88;;;;;;;0.26;71.57;100469.16;4959438;28;20082;-87
2021/12/15 07:57:22;;;;;;;47.78;19.83;;;;;;;0.09;71.66;100444.22;4961075;28;20117;-86
2021/12/15 07:59:50;;;;;;;46.72;18.63;;;;;;;0.30;71.65;100486.50;4992041;28;20047;-83
2021/12/15 08:02:18;;;;;;;48.97;19.17;;;;;;;0.16;71.61;100446.31;4987575;28;20081;-86
2021/12/15 08:04:45;;;;;;;51.78;18.00;;;;;;;0.47;71.34;100499.38;4983249;28;20466;-87
2021/12/15 08:07:13;;;;;;;48.17;18.80;;;;;;;0.33;71.02;100468.66;4979278;28;20082;-88
2021/12/15 08:09:40;;;;;;;48.45;19.15;;;;;;;0.47;71.46;100481.38;4994438;28;20149;-87
2021/12/15 08:12:08;;;;;;;46.75;17.50;;;;;;;0.54;71.33;100502.38;4980418;28;20470;-88
2021/12/15 08:14:38;;;;;;;47.50;18.67;;;;;;;0.39;71.49;100470.69;4982578;28;20059;-86
2021/12/15 08:17:06;;;;;;;49.53;18.88;;;;;;;0.29;71.79;100494.13;4969516;28;20058;-87
2021/12/15 08:19:34;;;;;;;48.28;17.75;;;;;;;0.19;71.55;100490.16;4985883;28;20050;-87
2021/12/15 08:22:02;;;;;;;49.60;17.17;;;;;;;0.04;72.24;100481.59;4943952;28;20507;-85
2021/12/15 08:24:29;;;;;;;51.67;17.67;;;;;;;0.00;72.10;100496.00;4990168;28;20104;-88
2021/12/15 08:26:56;;;;;;;49.85;18.98;;;;;;;-0.09;72.60;100493.75;5020815;28;20046;-85
2021/12/15 08:29:24;;;;;;;47.30;17.27;;;;;;;-0.01;72.73;100500.22;4993507;28;20082;-89
2021/12/15 08:31:51;;;;;;;43.05;16.60;;;;;;;-0.10;72.45;100480.84;5008283;28;20085;-87
2021/12/15 08:34:19;;;;;;;47.35;18.42;;;;;;;-0.17;72.47;100496.69;5002909;28;20081;-90
2021/12/15 08:36:50;;;;;;;48.83;17.38;;;;;;;-0.57;72.72;100449.13;4966574;28;20101;-87
2021/12/15 08:39:22;;;;;;;48.72;18.25;;;;;;;-0.39;73.28;100480.06;4997437;28;20051;-88
2021/12/15 08:41:50;;;;;;;49.05;18.63;;;;;;;-0.42;73.11;100474.78;4997439;28;20050;-89
2021/12/15 08:44:19;;;;;;;42.13;16.23;;;;;;;-0.51;73.13;100484.53;4980784;28;20054;-87
2021/12/15 08:46:47;;;;;;;43.70;17.58;;;;;;;-0.51;73.33;100484.53;4982480;28;20051;-89
2021/12/15 08:49:20;;;;;;;50.33;17.30;;;;;;;-0.47;73.81;100471.09;4998686;28;20082;-90
2021/12/15 08:51:51;;;;;;;51.08;18.08;;;;;;;-0.31;73.25;100478.84;4998357;28;20077;-88
2021/12/15 08:54:22;;;;;;;45.28;17.95;;;;;;;-0.28;72.96;100473.91;4996163;28;20597;-90
2021/12/15 08:56:50;;;;;;;51.58;18.17;;;;;;;-0.37;73.19;100452.81;5000329;28;20060;-88
2021/12/15 08:59:19;;;;;;;50.92;18.30;;;;;;;-0.28;72.99;100480.69;4980365;28;20470;-89
2021/12/15 09:01:47;;;;;;;48.35;18.30;;;;;;;-0.27;73.27;100482.47;5012262;28;20054;-91
2021/12/15 09:04:19;;;;;;;45.07;18.53;;;;;;;-0.22;72.89;100484.47;4951446;28;20054;-91
2021/12/15 09:06:48;;;;;;;42.33;16.42;;;;;;;-0.15;73.17;100478.03;5000228;28;20089;-91
2021/12/15 09:09:17;;;;;;;47.08;17.58;;;;;;;-0.16;73.46;100485.66;4998143;28;20085;-91
2021/12/15 09:11:44;;;;;;;44.80;16.67;;;;;;;-0.18;73.41;100446.16;4982331;28;20047;-88
2021/12/15 09:14:12;;;;;;;46.65;16.40;;;;;;;-0.04;72.80;100452.94;5006521;28;20466;-90
2021/12/15 09:16:43;;;;;;;44.75;17.85;;;;;;;-0.03;72.38;100440.16;5008127;28;20050;-88
2021/12/15 09:19:10;;;;;;;43.55;17.08;;;;;;;0.09;72.78;100478.50;5005897;28;20054;-89
2021/12/15 09:21:42;;;;;;;51.58;18.52;;;;;;;0.01;72.31;100433.53;5000627;28;20108;-89
2021/12/15 09:24:33;;;;;;;48.47;18.38;;;;;;;-0.07;72.47;100433.09;5000803;28;20146;-89
2021/12/15 09:27:02;;;;;;;45.78;18.67;;;;;;;-0.12;72.82;100423.38;5004409;28;20117;-89
2021/12/15 09:29:30;;;;;;;46.30;17.70;;;;;;;0.18;72.23;100442.16;5001422;28;20054;-93
2021/12/15 09:32:03;;;;;;;43.65;16.52;;;;;;;0.27;72.16;100459.75;4967758;28;20471;-92
2021/12/15 09:34:35;;;;;;;44.95;17.02;;;;;;;0.18;72.29;100440.47;5000895;28;20478;-93
2021/12/15 09:37:07;;;;;;;41.55;16.60;;;;;;;-0.01;72.51;100409.44;4983428;28;20053;-92
2021/12/15 09:39:36;;;;;;;46.60;16.55;;;;;;;-0.12;72.71;100372.03;4996816;28;20084;-91
2021/12/15 09:42:24;;;;;;;48.17;17.58;;;;;;;-0.03;72.39;100411.03;4975056;28;20506;-93
2021/12/15 09:44:59;;;;;;;46.45;16.48;;;;;;;-0.13;72.73;100407.09;5006154;28;20100;-90
2021/12/15 09:57:06;;;;;;;37.75;15.32;;;;;;;-0.02;72.08;100357.19;5031389;28;20102;-90
2021/12/15 10:02:43;;;;;;;38.38;15.75;;;;;;;-0.05;72.00;100333.00;4981523;28;20057;-88
2021/12/15 10:19:56;;;;;;;37.10;13.38;;;;;;;0.49;71.50;100393.25;4996293;28;20403;-88
2021/12/15 10:22:42;;;;;;;33.10;13.70;;;;;;;0.34;71.63;100395.00;4994879;28;20379;-86
2021/12/15 10:25:20;;;;;;;34.30;13.57;;;;;;;0.49;71.64;100405.22;4980431;28;20070;-90
2021/12/15 10:28:39;;;;;;;38.17;13.60;;;;;;;0.37;71.36;100372.06;4967151;28;20059;-90
2021/12/15 10:31:11;;;;;;;;;;;;;;;0.17;72.09;100387.31;4994015;28;20062;-88
2021/12/15 10:33:52;;;;;;;36.40;13.40;;;;;;;-0.14;72.11;100345.38;4985848;28;20306;-87
2021/12/15 10:36:32;;;;;;;36.42;14.40;;;;;;;0.04;72.56;100340.31;4991936;28;20566;-88
2021/12/15 10:39:11;;;;;;;35.90;13.95;;;;;;;0.04;71.74;100337.75;4962458;28;20051;-91
2021/12/15 10:41:44;;;;;;;33.28;12.38;;;;;;;0.25;71.79;100354.31;4959749;28;20043;-91
2021/12/15 10:47:30;;;;;;;31.13;11.43;;;;;;;0.29;71.47;100347.66;4945937;28;20055;-89
2021/12/15 10:50:13;;;;;;;28.67;12.57;;;;;;;0.09;71.66;100310.63;4978713;28;20061;-89
2021/12/15 10:52:59;;;;;;;32.75;11.90;;;;;;;0.14;71.51;100329.72;4963920;28;20059;-90
2021/12/15 10:55:35;;;;;;;32.80;11.93;;;;;;;0.46;71.63;100369.09;4948216;28;20057;-87
2021/12/15 10:58:32;;;;;;;32.85;11.93;;;;;;;0.31;71.26;100353.75;4981464;28;20062;-92
2021/12/15 11:01:04;;;;;;;32.70;11.90;;;;;;;0.30;71.90;100367.38;4981183;28;20109;-90
2021/12/15 11:03:38;;;;;;;38.33;13.70;;;;;;;0.16;72.37;100354.69;4965691;28;20057;-89
2021/12/15 11:06:23;;;;;;;34.10;12.57;;;;;;;0.13;72.11;100363.91;4983146;28;20106;-87
2021/12/15 11:09:20;;;;;;;32.75;13.32;;;;;;;0.09;72.35;100368.03;4987291;28;20058;-89
2021/12/15 11:12:13;;;;;;;32.15;12.88;;;;;;;0.20;72.41;100359.19;4986392;28;20427;-89
2021/12/15 11:14:45;;;;;;;31.07;13.80;;;;;;;0.34;72.21;100359.03;4985912;28;20051;-94
2021/12/15 11:17:26;;;;;;;33.03;13.07;;;;;;;0.08;71.87;100324.28;4965504;28;20141;-89
2021/12/15 11:20:22;;;;;;;32.63;13.05;;;;;;;0.05;72.20;100337.84;4952433;28;20075;-88
2021/12/15 11:23:16;;;;;;;36.97;13.68;;;;;;;-0.26;72.25;100313.09;4982704;28;20479;-92
2021/12/15 11:26:07;;;;;;;35.65;14.07;;;;;;;-0.30;72.55;100318.88;4996839;28;20058;-91
2021/12/15 11:28:42;;;;;;;35.90;13.77;;;;;;;-0.26;72.83;100301.94;4964605;28;20047;-86
2021/12/15 11:31:13;;;;;;;35.80;13.82;;;;;;;-0.13;72.75;100347.13;4989952;28;20570;-85
2021/12/15 11:33:50;;;;;;;30.65;12.15;;;;;;;0.02;72.99;100371.06;4994162;28;20077;-88
2021/12/15 11:36:30;;;;;;;31.17;13.68;;;;;;;0.13;73.18;100361.34;5028031;28;20053;-89
2021/12/15 11:39:16;;;;;;;31.95;13.85;;;;;;;0.07;72.68;100343.06;4998430;28;20109;-87
2021/12/15 11:41:49;;;;;;;31.48;13.82;;;;;;;0.32;72.83;100366.69;4999382;28;20054;-90
2021/12/15 11:44:22;;;;;;;29.70;12.27;;;;;;;0.40;71.97;100370.50;5013299;28;20058;-88
2021/12/15 11:47:02;;;;;;;32.92;12.13;;;;;;;0.40;71.91;100365.38;4983748;28;20533;-91
2021/12/15 11:49:36;;;;;;;32.60;12.57;;;;;;;0.32;72.22;100365.78;5018794;28;20065;-84
2021/12/15 11:52:24;;;;;;;31.42;12.85;;;;;;;0.11;72.39;100353.59;5018933;28;20062;-88
2021/12/15 11:54:56;;;;;;;34.03;12.68;;;;;;;0.25;72.87;100368.84;4997987;28;20033;-90
2021/12/15 11:57:28;;;;;;;31.73;13.32;;;;;;;0.12;73.18;100342.50;5022426;28;20057;-90
2021/12/15 12:00:12;;;;;;;30.13;12.60;;;;;;;0.00;72.29;100323.88;5007528;28;20030;-88
2021/12/15 12:02:43;;;;;;;28.05;12.10;;;;;;;0.15;72.96;100354.59;5022727;28;20074;-89
2021/12/15 12:05:20;;;;;;;31.10;12.85;;;;;;;-0.09;72.98;100313.09;5023276;28;20137;-86
2021/12/15 12:07:55;;;;;;;31.35;13.25;;;;;;;0.10;72.94;100338.97;5038564;28;20085;-86
2021/12/15 12:10:41;;;;;;;29.38;13.38;;;;;;;0.29;72.98;100384.50;5006175;28;20048;-89
2021/12/15 12:13:21;;;;;;;33.75;13.75;;;;;;;0.26;73.27;100379.22;5039560;28;20049;-86
2021/12/15 12:15:57;;;;;;;32.97;13.65;;;;;;;0.14;72.79;100358.88;5053720;28;20050;-88
2021/12/15 12:18:28;;;;;;;36.13;14.48;;;;;;;0.23;73.50;100379.03;5014806;28;20050;-87
2021/12/15 12:21:05;;;;;;;31.23;14.25;;;;;;;0.03;72.90;100329.16;5015811;28;20058;-88
2021/12/15 12:23:40;;;;;;;31.42;13.13;;;;;;;0.08;72.78;100325.16;4999387;28;20101;-89
2021/12/15 12:26:13;;;;;;;31.90;13.98;;;;;;;0.43;72.99;100376.63;5001215;28;20506;-89
2021/12/15 12:28:46;;;;;;;35.40;13.07;;;;;;;0.24;73.31;100347.41;5004953;28;20077;-88
2021/12/15 12:31:20;;;;;;;33.83;14.45;;;;;;;0.40;73.23;100395.34;5016194;28;20414;-88
2021/12/15 12:33:49;;;;;;;39.15;14.30;;;;;;;0.08;73.61;100334.56;5006561;28;20050;-91
2021/12/15 12:36:27;;;;;;;31.50;13.65;;;;;;;0.35;73.34;100373.66;5000571;28;20050;-89
2021/12/15 12:39:00;;;;;;;33.03;13.55;;;;;;;0.20;73.23;100374.63;5016304;28;20054;-88
2021/12/15 12:41:39;;;;;;;33.95;13.23;;;;;;;0.02;73.59;100360.78;5013637;28;20062;-90
2021/12/15 12:44:07;;;;;;;36.90;14.85;;;;;;;0.18;73.54;100372.78;4965049;28;20095;-88
2021/12/15 12:46:55;;;;;;;41.40;14.20;;;;;;;0.25;73.58;100385.13;5018320;28;20055;-89
2021/12/15 13:00:55;;;;;;;36.15;12.50;;;;;;;0.08;73.66;100366.25;4978305;28;19969;-89
2021/12/15 13:03:35;;;;;;;34.05;14.27;;;;;;;0.08;73.51;100379.09;4978169;28;20059;-88
2021/12/15 13:06:05;;;;;;;32.85;13.50;;;;;;;0.11;73.98;100376.72;4977213;28;20097;-89
2021/12/15 13:08:38;;;;;;;33.00;14.50;;;;;;;0.15;74.43;100373.50;4976870;28;20704;-88
2021/12/15 13:11:36;;;;;;;33.65;14.98;;;;;;;0.20;73.55;100379.75;4985740;28;20058;-91
2021/12/15 13:14:12;;;;;;;44.20;17.05;;;;;;;0.26;73.78;100381.78;4979779;28;20405;-89